Terminal Aerodrome Forecast
Issued by NWS Wilmington, OH

Current Version | Previous Version | Text Only | Print | Product List | Glossary Off
Versions: 1 2 3 4 5 6 7 8 9 10 11 12 13 14 15 16 17

000
FTUS41 KILN 262100 AAB
TAFDAY
TAF AMD
KDAY 262144Z 2622/2718 33008KT P6SM VCTS BKN040CB
      TEMPO 2622/2624 33015G25KT 5SM -TSRA OVC035CB
     FM270000 23005KT P6SM SCT040
     FM270300 24005KT P6SM VCTS BKN050CB
     FM271000 34005KT P6SM SCT050 SCT100=

USA.gov is the U.S. government's official web portal to all federal, state and local government web resources and services.